Time;durP1;ratioP1;P1;durP2;ratioP2;P2;SDS_P1;SDS_P2;PMS_P1;PMS_P2;Temp;Humidity;BMP_temperature;BMP_pressure;BME280_temperature;BME280_humidity;BME280_pressure;Samples;Min_cycle;Max_cycle;Signal;HPM_P1;HPM_P2
2023/04/06 00:01:28;;;;;;;5.53;2.22;;;;;;;2.96;84.96;101700.28;6276161;28;20048;-73
2023/04/06 00:04:30;;;;;;;7.72;2.72;;;;;;;2.92;85.96;101688.19;6276725;28;20041;-73
2023/04/06 00:07:33;;;;;;;4.43;2.33;;;;;;;2.91;85.02;101684.75;6276136;28;20040;-73
2023/04/06 00:10:35;;;;;;;8.68;3.72;;;;;;;2.89;86.22;101691.66;6275886;28;20048;-73
2023/04/06 00:13:37;;;;;;;6.13;3.22;;;;;;;2.88;86.29;101683.91;6276170;28;20044;-73
2023/04/06 00:16:38;;;;;;;11.57;3.28;;;;;;;2.83;86.18;101686.53;6276284;28;20044;-73
2023/04/06 00:19:39;;;;;;;5.78;2.78;;;;;;;2.77;86.40;101681.34;6276082;28;20048;-73
2023/04/06 00:22:42;;;;;;;5.43;2.90;;;;;;;2.76;86.94;101685.69;6275962;28;20052;-73
2023/04/06 00:25:44;;;;;;;6.03;2.47;;;;;;;2.72;86.21;101672.72;6275966;28;20564;-73
2023/04/06 00:28:45;;;;;;;4.80;2.45;;;;;;;2.72;86.48;101685.72;6275829;28;20330;-73
2023/04/06 00:31:46;;;;;;;4.75;2.60;;;;;;;2.70;86.41;101677.09;6275679;28;20049;-74
2023/04/06 00:34:48;;;;;;;5.38;2.35;;;;;;;2.67;86.48;101675.34;6275531;28;20056;-73
2023/04/06 00:37:50;;;;;;;3.75;2.10;;;;;;;2.62;86.87;101658.94;6275614;28;20049;-73
2023/04/06 00:40:52;;;;;;;7.85;2.55;;;;;;;2.58;87.21;101665.03;6275687;28;20049;-73
2023/04/06 00:43:54;;;;;;;6.00;3.08;;;;;;;2.59;87.01;101665.88;6275508;28;20052;-73
2023/04/06 00:46:55;;;;;;;2.90;2.20;;;;;;;2.45;86.72;101665.97;6267240;28;20064;-73
2023/04/06 00:49:57;;;;;;;4.75;2.35;;;;;;;2.46;87.93;101654.75;6275667;28;20456;-73
2023/04/06 00:53:00;;;;;;;6.93;3.15;;;;;;;2.44;87.33;101657.31;6275223;28;20049;-73
2023/04/06 00:56:02;;;;;;;4.88;2.53;;;;;;;2.38;87.00;101653.91;6275463;28;20045;-73
2023/04/06 00:59:03;;;;;;;5.13;2.85;;;;;;;2.35;88.02;101651.31;6274755;28;20048;-73
2023/04/06 01:02:05;;;;;;;3.83;2.55;;;;;;;2.26;87.12;101647.03;6275056;28;20570;-73
2023/04/06 01:05:07;;;;;;;3.45;2.50;;;;;;;2.19;87.59;101645.34;6275136;28;20151;-73
2023/04/06 01:08:10;;;;;;;6.32;2.55;;;;;;;2.12;87.07;101646.25;6275129;28;20433;-73
2023/04/06 01:11:11;;;;;;;6.35;2.70;;;;;;;2.13;87.30;101648.81;6275179;28;20377;-72
2023/04/06 01:14:13;;;;;;;4.95;3.15;;;;;;;2.15;86.44;101646.22;6274583;28;20041;-73
2023/04/06 01:17:14;;;;;;;4.57;2.47;;;;;;;2.14;87.01;101641.94;6274995;28;20045;-72
2023/04/06 01:20:16;;;;;;;4.05;2.25;;;;;;;2.13;86.49;101638.44;6274952;28;20064;-73
2023/04/06 01:23:19;;;;;;;5.05;2.60;;;;;;;2.10;87.16;101638.47;6274515;28;20442;-73
2023/04/06 01:26:20;;;;;;;6.22;3.03;;;;;;;2.09;86.67;101633.28;6274800;28;20048;-73
2023/04/06 01:29:22;;;;;;;5.88;2.78;;;;;;;2.07;87.78;101635.88;6274994;28;20044;-73
2023/04/06 01:32:23;;;;;;;3.30;2.03;;;;;;;2.02;87.68;101640.22;6274726;28;20056;-73
2023/04/06 01:35:25;;;;;;;6.28;2.55;;;;;;;2.02;88.52;101629.84;6274644;28;20049;-73
2023/04/06 01:38:27;;;;;;;3.30;2.45;;;;;;;1.98;88.52;101630.72;6274702;28;20182;-73
2023/04/06 01:41:29;;;;;;;4.93;2.75;;;;;;;1.96;88.94;101638.53;6274583;28;20045;-73
2023/04/06 01:44:30;;;;;;;7.15;3.80;;;;;;;1.95;89.05;101635.91;6274695;28;20041;-72
2023/04/06 01:47:32;;;;;;;5.53;2.67;;;;;;;1.91;88.78;101632.50;6274480;28;20059;-72
2023/04/06 01:50:33;;;;;;;7.90;3.08;;;;;;;1.87;88.52;101624.75;6274369;28;20049;-73
2023/04/06 01:53:36;;;;;;;4.20;2.55;;;;;;;1.86;88.47;101630.78;6274455;28;20045;-73
2023/04/06 01:56:37;;;;;;;5.72;3.28;;;;;;;1.81;87.86;101625.59;6274448;28;20455;-73
2023/04/06 01:59:38;;;;;;;4.28;2.53;;;;;;;1.82;87.94;101618.69;6274334;28;20067;-73
2023/04/06 02:02:40;;;;;;;5.45;2.67;;;;;;;1.79;87.13;101619.56;6274494;28;20056;-73
2023/04/06 02:05:41;;;;;;;6.65;3.28;;;;;;;1.74;87.06;101622.19;6274433;28;20048;-74
2023/04/06 02:08:44;;;;;;;7.53;3.15;;;;;;;1.71;86.64;101613.56;6274438;28;20127;-74
2023/04/06 02:11:45;;;;;;;4.88;2.60;;;;;;;1.68;87.02;101608.38;6272433;28;20811;-73
2023/04/06 02:14:46;;;;;;;5.82;3.22;;;;;;;1.67;86.92;101611.81;6275801;28;20048;-73
2023/04/06 02:17:48;;;;;;;6.90;3.08;;;;;;;1.68;87.19;101598.88;6265374;28;20486;-73
2023/04/06 02:20:49;;;;;;;3.88;2.65;;;;;;;1.70;86.48;101607.50;6278865;28;20076;-73
2023/04/06 02:23:52;;;;;;;4.38;2.83;;;;;;;1.68;86.89;101603.19;6278765;28;20327;-73
2023/04/06 02:26:53;;;;;;;7.32;3.08;;;;;;;1.59;86.55;101608.38;6278917;28;20049;-73
2023/04/06 02:29:55;;;;;;;5.90;3.05;;;;;;;1.58;86.36;101610.13;6268322;28;20056;-73
2023/04/06 02:32:56;;;;;;;6.85;2.80;;;;;;;1.49;86.50;101602.38;6278480;28;20056;-73
2023/04/06 02:35:57;;;;;;;7.20;3.33;;;;;;;1.46;86.63;101597.22;6278621;28;20060;-73
2023/04/06 02:39:00;;;;;;;6.65;3.55;;;;;;;1.49;87.25;101589.41;6278141;28;20318;-73
2023/04/06 02:42:01;;;;;;;6.05;3.70;;;;;;;1.48;86.71;101590.28;6278403;28;20049;-73
2023/04/06 02:45:03;;;;;;;7.53;3.38;;;;;;;1.48;86.43;101587.72;6269868;28;20045;-73
2023/04/06 02:48:06;;;;;;;6.78;3.55;;;;;;;1.43;86.26;101585.13;6278076;28;20490;-73
2023/04/06 02:51:07;;;;;;;6.80;3.30;;;;;;;1.43;86.46;101592.03;6278359;28;20053;-73
2023/04/06 02:54:09;;;;;;;6.95;3.85;;;;;;;1.43;85.36;101585.13;6259738;28;20041;-73
2023/04/06 02:57:11;;;;;;;6.22;3.38;;;;;;;1.40;85.72;101594.63;6253288;28;20057;-73
2023/04/06 03:00:13;;;;;;;8.38;3.35;;;;;;;1.37;86.80;101584.28;6253980;28;20053;-73
2023/04/06 03:03:15;;;;;;;6.20;3.30;;;;;;;1.37;86.79;101589.47;6253404;28;20045;-73
2023/04/06 03:06:16;;;;;;;5.80;3.30;;;;;;;1.40;87.06;101581.69;6267850;28;20060;-73
2023/04/06 03:09:19;;;;;;;7.88;3.92;;;;;;;1.37;87.01;101579.97;6277762;28;20049;-73
2023/04/06 03:12:21;;;;;;;3.83;2.80;;;;;;;1.36;87.94;101583.41;6278016;28;20049;-73
2023/04/06 03:15:23;;;;;;;7.25;3.40;;;;;;;1.35;87.29;101576.50;6277936;28;20041;-73
2023/04/06 03:18:26;;;;;;;7.22;3.42;;;;;;;1.30;88.09;101575.66;6277031;28;20053;-73
2023/04/06 03:21:27;;;;;;;4.55;2.95;;;;;;;1.28;88.86;101580.00;6278018;28;20080;-73
2023/04/06 03:24:30;;;;;;;8.93;3.42;;;;;;;1.27;88.13;101571.38;6277296;28;20485;-73
2023/04/06 03:27:32;;;;;;;4.53;3.05;;;;;;;1.27;88.39;101575.66;6277493;28;20052;-73
2023/04/06 03:30:34;;;;;;;5.93;3.42;;;;;;;1.31;88.32;101581.69;6277759;28;20057;-73
2023/04/06 03:33:36;;;;;;;8.10;3.80;;;;;;;1.25;88.68;101580.84;6277718;28;20041;-73
2023/04/06 03:36:37;;;;;;;6.25;3.90;;;;;;;1.23;88.19;101568.78;6277311;28;20052;-73
2023/04/06 03:39:40;;;;;;;5.35;2.95;;;;;;;1.23;88.58;101571.38;6277385;28;20051;-73
2023/04/06 03:42:41;;;;;;;6.78;4.22;;;;;;;1.23;88.46;101561.03;6276500;28;20053;-73
2023/04/06 03:45:43;;;;;;;8.23;3.85;;;;;;;1.19;88.30;101559.28;6256145;28;20125;-73
2023/04/06 03:48:44;;;;;;;5.75;3.47;;;;;;;1.18;88.40;101562.72;6253949;28;20045;-73
2023/04/06 03:51:45;;;;;;;6.72;3.83;;;;;;;1.19;88.93;101561.88;6257072;28;20052;-72
2023/04/06 03:54:48;;;;;;;9.18;4.20;;;;;;;1.16;89.06;101569.66;6256061;28;20555;-73
2023/04/06 03:57:50;;;;;;;7.45;4.15;;;;;;;1.16;89.64;101573.09;6256422;28;20049;-72
2023/04/06 04:00:51;;;;;;;8.45;3.97;;;;;;;1.14;89.73;101574.84;6255608;28;20048;-72
2023/04/06 04:03:53;;;;;;;7.70;4.00;;;;;;;1.14;89.92;101572.25;6254475;28;20037;-72
2023/04/06 04:06:54;;;;;;;7.82;3.92;;;;;;;1.14;89.60;101572.25;6255848;28;20052;-73
2023/04/06 04:09:57;;;;;;;6.63;3.63;;;;;;;1.12;89.68;101579.13;6257274;28;20049;-73
2023/04/06 04:12:59;;;;;;;7.32;3.50;;;;;;;1.10;89.55;101580.00;6259032;28;20056;-73
2023/04/06 04:16:00;;;;;;;7.72;4.20;;;;;;;1.07;90.20;101577.41;6255279;28;20045;-74
2023/04/06 04:19:02;;;;;;;9.13;4.63;;;;;;;1.06;90.12;101581.75;6254653;28;20195;-72
2023/04/06 04:22:04;;;;;;;6.97;4.20;;;;;;;1.04;90.06;101574.81;6254251;28;20052;-72
2023/04/06 04:25:08;;;;;;;7.93;4.80;;;;;;;1.02;90.14;101580.00;6253275;28;20175;-72
2023/04/06 04:28:09;;;;;;;11.82;5.75;;;;;;;1.02;90.53;101580.88;6256673;28;20072;-73
2023/04/06 04:31:11;;;;;;;7.90;4.13;;;;;;;1.03;90.62;101576.56;6254789;28;20048;-72
2023/04/06 04:34:12;;;;;;;13.27;4.60;;;;;;;1.01;90.04;101576.56;6258566;28;20048;-72
2023/04/06 04:37:14;;;;;;;7.75;5.28;;;;;;;0.99;89.74;101583.44;6255972;28;20060;-72
2023/04/06 04:40:17;;;;;;;9.63;5.03;;;;;;;0.98;90.14;101579.16;6255117;28;20056;-73
2023/04/06 04:43:18;;;;;;;8.43;5.07;;;;;;;0.99;90.48;101575.69;6261656;28;20184;-77
2023/04/06 04:46:20;;;;;;;8.80;4.90;;;;;;;0.98;89.98;101578.28;6275684;28;20056;-72
2023/04/06 04:49:21;;;;;;;9.57;5.55;;;;;;;0.99;90.06;101586.03;6275745;28;20075;-72
2023/04/06 04:52:22;;;;;;;8.25;4.80;;;;;;;0.99;89.97;101580.88;6275721;28;20352;-72
2023/04/06 04:55:25;;;;;;;7.00;4.55;;;;;;;1.02;89.53;101580.00;6275621;28;20049;-73
2023/04/06 04:58:27;;;;;;;9.27;4.82;;;;;;;1.02;90.09;101578.28;6275088;28;20048;-73
2023/04/06 05:01:28;;;;;;;12.85;5.10;;;;;;;0.99;89.09;101577.41;6275747;28;20051;-73
2023/04/06 05:04:30;;;;;;;12.52;4.90;;;;;;;0.99;89.38;101574.81;6275581;28;20056;-72
2023/04/06 05:07:31;;;;;;;13.68;5.78;;;;;;;0.99;90.36;101578.28;6275278;28;20405;-72
2023/04/06 05:10:35;;;;;;;14.38;4.60;;;;;;;0.95;89.98;101574.00;6275378;28;20049;-72
2023/04/06 05:13:37;;;;;;;11.50;4.95;;;;;;;0.93;90.69;101572.25;6275503;28;20049;-72
2023/04/06 05:16:38;;;;;;;9.00;5.28;;;;;;;0.87;90.08;101573.13;6275385;28;20441;-72
2023/04/06 05:19:39;;;;;;;8.73;4.72;;;;;;;0.87;90.49;101572.25;6274981;28;20045;-72
2023/04/06 05:22:41;;;;;;;5.90;3.60;;;;;;;0.94;90.59;101576.56;6275388;28;20052;-72
2023/04/06 05:25:43;;;;;;;10.63;5.78;;;;;;;0.97;90.44;101568.81;6275124;28;20071;-72
2023/04/06 05:28:45;;;;;;;10.93;4.93;;;;;;;1.00;91.36;101571.41;6274800;28;20045;-72
2023/04/06 05:31:46;;;;;;;8.05;4.13;;;;;;;1.01;91.72;101573.13;6274785;28;20060;-72
2023/04/06 05:34:48;;;;;;;10.88;4.85;;;;;;;1.02;91.10;101567.94;6275165;28;20052;-72
2023/04/06 05:37:50;;;;;;;10.52;5.40;;;;;;;1.04;91.30;101573.09;6274752;28;20076;-72
2023/04/06 05:40:52;;;;;;;6.70;4.10;;;;;;;1.07;91.11;101567.94;6275230;28;20438;-72
2023/04/06 05:43:54;;;;;;;7.32;4.72;;;;;;;1.09;91.29;101571.38;6274675;28;20053;-72
2023/04/06 05:46:55;;;;;;;10.68;4.18;;;;;;;1.11;90.84;101566.19;6277418;28;20052;-72
2023/04/06 05:49:56;;;;;;;10.55;5.78;;;;;;;1.14;90.98;101568.81;6279862;28;20052;-72
2023/04/06 05:52:58;;;;;;;6.95;3.90;;;;;;;1.19;90.97;101567.06;6279748;28;20136;-72
2023/04/06 05:56:03;;;;;;;11.32;4.72;;;;;;;1.20;89.86;101573.97;6279542;28;20041;-72
2023/04/06 05:59:04;;;;;;;12.13;5.43;;;;;;;1.19;89.59;101564.47;6279653;28;20053;-72
2023/04/06 06:02:06;;;;;;;11.23;5.15;;;;;;;1.28;90.18;101572.22;6279523;28;20051;-73
2023/04/06 06:05:08;;;;;;;7.18;4.07;;;;;;;1.35;89.67;101563.56;6278555;28;20049;-72
2023/04/06 06:08:10;;;;;;;7.85;3.88;;;;;;;1.41;89.56;101567.84;6278945;28;20049;-72
2023/04/06 06:11:12;;;;;;;9.18;4.40;;;;;;;1.44;89.46;101560.09;6279312;28;20088;-72
2023/04/06 06:14:15;;;;;;;8.18;4.93;;;;;;;1.51;89.66;101559.22;6279247;28;20045;-72
2023/04/06 06:17:16;;;;;;;9.93;4.47;;;;;;;1.54;89.60;101556.59;6279165;28;20048;-72
2023/04/06 06:20:18;;;;;;;5.93;4.20;;;;;;;1.59;89.31;101554.88;6279327;28;20060;-73
2023/04/06 06:23:19;;;;;;;7.22;3.40;;;;;;;1.67;88.65;101553.09;6279156;28;20369;-72
2023/04/06 06:26:22;;;;;;;4.93;3.10;;;;;;;1.73;89.29;101563.47;6279046;28;20056;-72
2023/04/06 06:29:24;;;;;;;6.57;3.83;;;;;;;1.81;88.94;101563.41;6278845;28;20564;-72
2023/04/06 06:32:26;;;;;;;7.80;4.78;;;;;;;1.88;88.09;101567.72;6278963;28;20178;-73
2023/04/06 06:35:27;;;;;;;6.88;3.70;;;;;;;1.95;88.67;101559.06;6279072;28;20049;-72
2023/04/06 06:38:28;;;;;;;12.63;3.92;;;;;;;2.03;88.06;101562.44;6278558;28;20068;-72
2023/04/06 06:41:31;;;;;;;6.53;4.55;;;;;;;2.12;86.43;101565.88;6278776;28;20048;-72
2023/04/06 06:44:32;;;;;;;6.88;3.60;;;;;;;2.18;86.59;101566.72;6278797;28;20045;-72
2023/04/06 06:47:34;;;;;;;6.50;3.60;;;;;;;2.21;86.14;101564.06;6278704;28;20049;-72
2023/04/06 06:50:35;;;;;;;8.10;3.65;;;;;;;2.28;86.30;101560.59;6278432;28;20053;-72
2023/04/06 06:53:36;;;;;;;6.80;3.63;;;;;;;2.35;86.19;101560.53;6278516;28;20056;-72
2023/04/06 06:56:39;;;;;;;10.73;4.40;;;;;;;2.40;86.81;101562.22;6278025;28;20049;-75
2023/04/06 06:59:40;;;;;;;7.95;3.78;;;;;;;2.50;86.05;101558.72;6277054;28;20041;-75
2023/04/06 07:02:42;;;;;;;6.78;3.78;;;;;;;2.58;85.69;101555.19;6277889;28;20045;-75
2023/04/06 07:05:49;;;;;;;6.55;3.60;;;;;;;2.62;85.68;101562.94;6277283;28;20049;-75
2023/04/06 07:08:51;;;;;;;5.25;3.08;;;;;;;2.72;85.02;101562.00;6275821;28;20103;-75
2023/04/06 07:11:53;;;;;;;8.07;3.20;;;;;;;2.80;84.07;101561.94;6276596;28;20049;-75
2023/04/06 07:14:55;;;;;;;6.30;3.33;;;;;;;2.88;82.43;101559.28;6273780;28;20421;-76
2023/04/06 07:17:56;;;;;;;7.72;3.17;;;;;;;3.01;81.36;101560.91;6271054;28;20076;-76
2023/04/06 07:20:58;;;;;;;5.88;2.90;;;;;;;3.10;81.73;101554.78;6277558;28;20053;-75
2023/04/06 07:23:59;;;;;;;7.20;3.42;;;;;;;3.19;77.89;101552.09;6277692;28;20060;-72
2023/04/06 07:27:02;;;;;;;4.50;2.80;;;;;;;3.37;77.48;101548.44;6273628;28;20045;-74
2023/04/06 07:30:04;;;;;;;6.05;3.17;;;;;;;3.47;77.72;101555.25;6277071;28;20049;-75
2023/04/06 07:33:05;;;;;;;6.85;3.97;;;;;;;3.52;78.70;101551.72;6268374;28;20053;-73
2023/04/06 07:36:07;;;;;;;7.95;3.53;;;;;;;3.56;79.38;101555.16;6272770;28;20085;-74
2023/04/06 07:39:08;;;;;;;6.18;3.45;;;;;;;3.62;80.13;101551.59;6276890;28;20060;-73
2023/04/06 07:42:11;;;;;;;5.80;4.00;;;;;;;3.78;75.33;101551.41;6277187;28;20131;-72
2023/04/06 07:45:13;;;;;;;7.60;3.30;;;;;;;3.90;76.15;101545.19;6277180;28;20063;-73
2023/04/06 07:48:14;;;;;;;5.10;2.80;;;;;;;3.97;75.75;101546.84;6276801;28;20053;-73
2023/04/06 07:51:17;;;;;;;6.18;3.30;;;;;;;4.10;75.19;101544.06;6276725;28;20045;-72
2023/04/06 07:54:18;;;;;;;6.05;3.10;;;;;;;4.21;73.79;101549.97;6276985;28;20061;-73
2023/04/06 07:57:21;;;;;;;8.00;3.10;;;;;;;4.30;74.18;101537.69;6275988;28;20060;-73
2023/04/06 08:00:23;;;;;;;7.28;2.90;;;;;;;4.38;73.71;101544.53;6276707;28;20045;-73
2023/04/06 08:03:25;;;;;;;4.47;2.53;;;;;;;4.50;73.85;101539.16;6275108;28;20049;-73
2023/04/06 08:06:27;;;;;;;8.48;3.15;;;;;;;4.58;73.07;101537.28;6276372;28;20151;-73
2023/04/06 08:09:28;;;;;;;6.22;2.95;;;;;;;4.69;71.96;101537.13;6275979;28;20132;-73
2023/04/06 08:12:34;;;;;;;5.50;2.90;;;;;;;4.77;71.84;101543.06;6275976;28;20053;-72
2023/04/06 08:15:35;;;;;;;6.47;3.38;;;;;;;4.89;71.21;101541.97;6276609;28;20045;-73
2023/04/06 08:18:36;;;;;;;4.45;3.20;;;;;;;4.95;70.56;101540.16;6275987;28;20048;-73
2023/04/06 08:21:39;;;;;;;9.15;3.08;;;;;;;5.02;70.03;101536.53;6276096;28;20048;-73
2023/04/06 08:24:40;;;;;;;8.02;3.58;;;;;;;5.07;70.11;101537.31;6276292;28;20056;-73
2023/04/06 08:27:43;;;;;;;5.00;2.92;;;;;;;5.15;69.57;101539.78;6275887;28;20049;-73
2023/04/06 08:30:44;;;;;;;5.57;3.10;;;;;;;5.19;69.86;101538.00;6276281;28;20052;-73
2023/04/06 08:33:46;;;;;;;6.72;3.25;;;;;;;5.27;69.81;101536.97;6276390;28;20045;-73
2023/04/06 08:36:47;;;;;;;7.53;2.90;;;;;;;5.43;66.51;101544.47;6275420;28;20053;-73
2023/04/06 08:39:49;;;;;;;10.32;3.40;;;;;;;5.55;67.72;101545.09;6276221;28;20063;-71
2023/04/06 08:42:56;;;;;;;6.22;2.83;;;;;;;5.59;68.24;101536.34;6276036;28;20056;-72
2023/04/06 08:45:58;;;;;;;11.30;3.28;;;;;;;5.65;66.42;101527.53;6276145;28;20131;-72
2023/04/06 08:49:01;;;;;;;6.38;3.03;;;;;;;5.74;66.82;101529.94;6275909;28;20090;-72
2023/04/06 08:52:04;;;;;;;8.07;3.30;;;;;;;5.88;66.57;101528.78;6273002;28;20060;-73
2023/04/06 08:55:06;;;;;;;6.38;3.60;;;;;;;5.99;66.00;101527.69;6275465;28;20053;-72
2023/04/06 08:58:09;;;;;;;5.00;2.72;;;;;;;6.05;65.21;101529.31;6275188;28;20049;-74
2023/04/06 09:01:15;;;;;;;8.90;2.97;;;;;;;6.16;65.61;101524.72;6275724;28;20131;-73
2023/04/06 09:04:16;;;;;;;10.25;3.15;;;;;;;6.35;65.50;101520.78;6275499;28;20055;-73
2023/04/06 09:07:18;;;;;;;10.25;3.20;;;;;;;6.42;65.92;101518.91;6275407;28;20048;-73
2023/04/06 09:10:20;;;;;;;6.70;3.08;;;;;;;6.56;64.96;101526.41;6275278;28;20061;-74
2023/04/06 09:13:23;;;;;;;6.78;3.33;;;;;;;6.60;64.10;101528.91;6275476;28;20060;-73
2023/04/06 09:16:25;;;;;;;5.53;3.15;;;;;;;6.68;62.89;101515.66;6274882;28;20052;-72
2023/04/06 09:19:27;;;;;;;6.88;2.90;;;;;;;6.92;64.30;101515.94;6275316;28;20049;-74
2023/04/06 09:22:36;;;;;;;7.35;3.25;;;;;;;7.02;60.32;101520.88;6274455;28;20464;-73
2023/04/06 09:25:37;;;;;;;7.00;3.17;;;;;;;7.11;60.56;101520.63;6275225;28;20049;-73
2023/04/06 09:28:45;;;;;;;6.22;2.95;;;;;;;7.11;62.09;101509.31;6274623;28;20049;-73
2023/04/06 09:31:46;;;;;;;4.90;3.08;;;;;;;7.14;61.44;101511.88;6275201;28;20052;-73
2023/04/06 09:34:48;;;;;;;4.30;3.00;;;;;;;7.27;62.02;101504.56;6274958;28;20052;-73
2023/04/06 09:37:51;;;;;;;6.15;3.00;;;;;;;7.35;60.56;101508.63;6274588;28;20049;-72
2023/04/06 09:40:52;;;;;;;8.85;3.90;;;;;;;7.37;59.67;101504.25;6274675;28;20049;-73
2023/04/06 09:44:03;;;;;;;5.85;3.20;;;;;;;7.53;60.40;101502.03;6274892;28;20045;-73
2023/04/06 09:47:07;;;;;;;6.05;3.25;;;;;;;7.61;58.81;101497.44;6274616;28;20107;-73
2023/04/06 09:50:11;;;;;;;7.85;3.50;;;;;;;7.82;57.72;101489.88;6274630;28;20186;-73
2023/04/06 09:53:13;;;;;;;8.10;3.22;;;;;;;8.10;58.02;101495.13;6274358;28;20477;-73
2023/04/06 09:56:18;;;;;;;4.50;3.13;;;;;;;8.01;58.14;101484.94;6274575;28;20322;-73
2023/04/06 09:59:26;;;;;;;6.53;3.45;;;;;;;8.06;57.40;101485.66;6274635;28;20084;-74
2023/04/06 10:02:36;;;;;;;7.47;4.05;;;;;;;8.29;56.51;101492.78;6270279;28;20083;-73
2023/04/06 10:05:42;;;;;;;7.18;3.45;;;;;;;8.37;56.71;101486.44;6269758;28;20044;-73
2023/04/06 10:08:47;;;;;;;8.52;3.70;;;;;;;8.51;56.97;101490.38;6274419;28;20041;-74
2023/04/06 10:11:50;;;;;;;5.45;3.03;;;;;;;8.58;54.96;101478.75;6274608;28;20350;-74
2023/04/06 10:14:52;;;;;;;9.98;4.00;;;;;;;8.74;53.64;101489.59;6274508;28;20049;-73
2023/04/06 10:17:54;;;;;;;9.48;3.45;;;;;;;8.82;53.15;101487.59;6274255;28;20057;-73
2023/04/06 10:20:58;;;;;;;6.88;3.67;;;;;;;8.90;54.11;101480.28;6270257;28;20053;-73
2023/04/06 10:24:01;;;;;;;7.35;3.90;;;;;;;9.09;54.14;101481.38;6263648;28;20050;-72
2023/04/06 10:27:04;;;;;;;7.13;3.97;;;;;;;9.05;51.35;101481.53;6270751;28;20357;-72
2023/04/06 10:30:08;;;;;;;7.75;3.33;;;;;;;9.19;51.62;101481.91;6261464;28;20124;-72
2023/04/06 10:33:15;;;;;;;9.82;3.97;;;;;;;9.28;52.05;101483.34;6266580;28;20052;-72
2023/04/06 10:36:27;;;;;;;6.30;3.60;;;;;;;9.35;52.90;101477.81;6275655;28;20040;-73
2023/04/06 10:39:28;;;;;;;8.32;3.58;;;;;;;9.32;53.63;101474.47;6269105;28;20160;-73
2023/04/06 10:42:38;;;;;;;12.02;4.47;;;;;;;9.62;52.13;101465.44;6270552;28;20054;-73
2023/04/06 10:45:42;;;;;;;9.48;3.42;;;;;;;9.70;50.54;101467.78;6270371;28;20072;-73
2023/04/06 10:48:46;;;;;;;6.03;3.63;;;;;;;9.68;51.99;101459.13;6270178;28;20053;-73
2023/04/06 10:51:52;;;;;;;8.77;4.47;;;;;;;9.95;50.86;101458.94;6273378;28;20137;-71
2023/04/06 10:54:55;;;;;;;7.90;3.92;;;;;;;9.91;50.04;101459.06;6266682;28;20086;-71
2023/04/06 10:57:56;;;;;;;6.07;3.58;;;;;;;9.96;49.32;101453.66;6270741;28;20065;-71
2023/04/06 11:00:59;;;;;;;7.88;4.20;;;;;;;10.27;49.95;101450.69;6278558;28;20049;-71
2023/04/06 11:04:01;;;;;;;13.90;4.07;;;;;;;10.29;49.82;101446.22;6277839;28;20468;-71
2023/04/06 11:07:02;;;;;;;10.90;4.32;;;;;;;10.38;48.80;101458.97;6277904;28;20052;-71
2023/04/06 11:10:04;;;;;;;8.98;4.45;;;;;;;10.54;47.10;101453.09;6277066;28;20045;-71
2023/04/06 11:13:07;;;;;;;10.40;5.30;;;;;;;10.70;44.74;101455.91;6278042;28;20049;-71
2023/04/06 11:16:15;;;;;;;10.18;4.90;;;;;;;10.74;45.38;101450.47;6277891;28;20041;-71
2023/04/06 11:19:17;;;;;;;9.20;4.47;;;;;;;10.85;44.47;101456.09;6277828;28;20349;-71
2023/04/06 11:22:18;;;;;;;9.50;4.30;;;;;;;11.07;40.90;101460.44;6277791;28;20232;-71
2023/04/06 11:25:20;;;;;;;12.48;5.07;;;;;;;11.23;43.52;101450.97;6277643;28;20429;-71
2023/04/06 11:28:21;;;;;;;8.13;4.22;;;;;;;11.09;39.44;101450.72;6277414;28;20587;-71
2023/04/06 11:31:27;;;;;;;9.07;4.32;;;;;;;11.16;42.50;101438.97;6278121;28;20056;-71
2023/04/06 11:34:29;;;;;;;10.10;5.05;;;;;;;11.24;43.43;101438.66;6277717;28;20045;-71
2023/04/06 11:37:32;;;;;;;10.50;4.88;;;;;;;11.35;41.90;101429.34;6277196;28;20191;-71
2023/04/06 11:40:34;;;;;;;13.15;4.72;;;;;;;11.40;43.66;101426.53;6277467;28;20388;-71
2023/04/06 11:43:35;;;;;;;9.45;4.90;;;;;;;11.72;43.00;101421.50;6277112;28;20190;-71
2023/04/06 11:46:38;;;;;;;10.75;5.15;;;;;;;11.84;42.01;101413.91;6276898;28;20052;-71
2023/04/06 11:49:41;;;;;;;8.30;4.35;;;;;;;12.16;42.53;101422.03;6277392;28;20430;-71
2023/04/06 11:52:43;;;;;;;9.68;5.25;;;;;;;12.37;41.72;101425.41;6276822;28;20049;-71
2023/04/06 11:55:47;;;;;;;10.52;4.28;;;;;;;12.45;41.88;101412.69;6276982;28;20064;-71
2023/04/06 11:58:48;;;;;;;10.90;4.20;;;;;;;12.59;41.98;101412.84;6274406;28;20056;-74
2023/04/06 12:01:51;;;;;;;11.60;4.47;;;;;;;12.74;40.67;101415.63;6262457;28;20049;-74
2023/04/06 12:04:53;;;;;;;8.90;4.22;;;;;;;12.87;41.18;101409.63;6262277;28;20469;-71
2023/04/06 12:07:54;;;;;;;10.70;4.28;;;;;;;13.04;38.16;101400.84;6268057;28;20327;-70
2023/04/06 12:10:56;;;;;;;8.30;4.55;;;;;;;13.25;38.63;101404.13;6268154;28;20130;-69
2023/04/06 12:13:59;;;;;;;9.88;4.75;;;;;;;13.53;40.47;101399.97;6269479;28;20071;-69
2023/04/06 12:17:01;;;;;;;8.07;4.10;;;;;;;13.58;39.24;101396.19;6261318;28;20134;-69
2023/04/06 12:20:03;;;;;;;6.38;3.97;;;;;;;13.68;39.31;101396.50;6267553;28;20334;-69
2023/04/06 12:23:04;;;;;;;9.32;4.28;;;;;;;13.84;38.76;101393.84;6274433;28;20472;-70
2023/04/06 12:26:06;;;;;;;19.67;5.05;;;;;;;13.92;38.39;101395.13;6276072;28;20045;-69
2023/04/06 12:29:07;;;;;;;8.38;3.80;;;;;;;13.99;38.35;101392.09;6275923;28;20353;-70
2023/04/06 12:32:10;;;;;;;8.68;4.35;;;;;;;14.42;38.82;101401.06;6275967;28;20049;-69
2023/04/06 12:35:15;;;;;;;11.30;5.00;;;;;;;14.33;35.77;101378.66;6267251;28;20045;-71
2023/04/06 12:38:16;;;;;;;7.60;4.60;;;;;;;14.28;36.80;101385.16;6273987;28;20043;-70
2023/04/06 12:41:18;;;;;;;10.07;4.20;;;;;;;14.53;36.72;101384.56;6275894;28;20056;-70
2023/04/06 12:44:20;;;;;;;8.25;5.03;;;;;;;14.66;39.16;101391.69;6275987;28;20049;-69
2023/04/06 12:47:22;;;;;;;8.75;4.13;;;;;;;14.77;34.69;101385.75;6275374;28;20045;-69
2023/04/06 12:50:24;;;;;;;8.32;4.28;;;;;;;14.56;33.36;101389.69;6275550;28;20365;-70
2023/04/06 12:53:25;;;;;;;7.97;4.05;;;;;;;14.74;32.15;101379.81;6275356;28;20053;-70
2023/04/06 12:56:27;;;;;;;9.40;4.53;;;;;;;14.80;34.44;101367.03;6268399;28;20052;-70
2023/04/06 12:59:34;;;;;;;11.38;4.72;;;;;;;14.80;36.41;101364.38;6274071;28;20056;-70
2023/04/06 13:02:37;;;;;;;10.85;4.68;;;;;;;14.93;35.15;101359.19;6267433;28;20346;-70
2023/04/06 13:05:45;;;;;;;7.25;4.00;;;;;;;15.07;35.10;101369.78;6275363;28;20052;-71
2023/04/06 13:08:47;;;;;;;8.00;4.03;;;;;;;15.13;35.06;101371.22;6274579;28;20076;-70
2023/04/06 13:11:48;;;;;;;11.93;4.22;;;;;;;15.16;33.32;101361.25;6275032;28;20053;-70
2023/04/06 13:14:52;;;;;;;13.95;4.55;;;;;;;15.31;34.16;101351.53;6275542;28;20049;-70
2023/04/06 13:17:55;;;;;;;7.30;3.97;;;;;;;15.43;34.68;101357.81;6274968;28;20049;-70
2023/04/06 13:20:56;;;;;;;10.30;4.60;;;;;;;15.68;33.83;101351.84;6269418;28;20056;-70
2023/04/06 13:23:57;;;;;;;10.43;4.72;;;;;;;15.89;33.33;101362.81;6275007;28;20053;-70
2023/04/06 13:27:00;;;;;;;11.05;4.38;;;;;;;15.90;33.75;101346.81;6274140;28;20041;-70
2023/04/06 13:30:02;;;;;;;8.95;4.50;;;;;;;15.83;34.31;101342.88;6274300;28;20150;-69
2023/04/06 13:33:06;;;;;;;7.47;4.70;;;;;;;15.98;34.95;101341.84;6275151;28;20045;-71
2023/04/06 13:36:08;;;;;;;12.60;4.75;;;;;;;15.84;31.39;101339.25;6274606;28;20053;-70
2023/04/06 13:39:09;;;;;;;7.18;4.15;;;;;;;15.91;34.73;101339.72;6274654;28;20053;-70
2023/04/06 13:42:11;;;;;;;13.15;4.70;;;;;;;15.97;32.25;101334.84;6274978;28;20126;-70
2023/04/06 13:45:12;;;;;;;9.85;3.75;;;;;;;16.07;32.82;101329.78;6274799;28;20180;-69
2023/04/06 13:48:15;;;;;;;9.20;4.30;;;;;;;16.11;34.61;101322.47;6275148;28;20041;-69
2023/04/06 13:51:16;;;;;;;6.95;3.85;;;;;;;16.20;31.10;101321.84;6274953;28;20053;-70
2023/04/06 13:54:17;;;;;;;7.53;4.00;;;;;;;16.15;32.00;101322.16;6274522;28;20049;-70
2023/04/06 13:57:19;;;;;;;10.73;4.55;;;;;;;16.25;31.49;101325.03;6269773;28;20041;-71
2023/04/06 14:00:20;;;;;;;9.77;4.28;;;;;;;16.23;33.29;101321.66;6271993;28;20127;-71
2023/04/06 14:03:23;;;;;;;10.30;4.57;;;;;;;16.07;32.59;101315.69;6270228;28;20077;-70
2023/04/06 14:06:25;;;;;;;9.88;4.60;;;;;;;15.81;33.27;101310.34;6258392;28;20060;-70
2023/04/06 14:09:26;;;;;;;11.98;4.90;;;;;;;16.07;34.69;101316.53;6259096;28;20140;-71
2023/04/06 14:12:28;;;;;;;7.88;4.45;;;;;;;16.12;33.44;101317.06;6262742;28;20055;-71